createdAt,value
2024-03-10T00:01:34.564Z,37.48
2024-03-10T00:04:01.283Z,39.52
2024-03-10T00:06:28.044Z,38.29
2024-03-10T00:08:54.906Z,37.42
2024-03-10T00:11:22.468Z,39.99
2024-03-10T00:13:50.383Z,40.59
2024-03-10T00:16:17.701Z,41.15
2024-03-10T00:18:44.362Z,38.52
2024-03-10T00:21:11.064Z,37.95
2024-03-10T00:23:38.336Z,36.53
2024-03-10T00:26:07.382Z,36.86
2024-03-10T00:28:37.768Z,37.91
2024-03-10T00:31:04.927Z,40.67
2024-03-10T00:33:31.704Z,40.87
2024-03-10T00:35:59.090Z,41.97
2024-03-10T00:38:28.862Z,41.63
2024-03-10T00:40:56.307Z,44.57
2024-03-10T00:43:23.155Z,42.41
2024-03-10T00:45:53.236Z,43.15
2024-03-10T00:48:20.415Z,40.65
2024-03-10T00:50:50.307Z,41.94
2024-03-10T00:53:17.027Z,40.51
2024-03-10T00:55:44.137Z,41.59
2024-03-10T00:58:11.881Z,44.85
2024-03-10T01:00:39.047Z,45.23
2024-03-10T01:03:08.499Z,45.14
2024-03-10T01:05:35.222Z,45.98
2024-03-10T01:08:02.080Z,45.14
2024-03-10T01:10:28.929Z,46.98
2024-03-10T01:12:56.243Z,43.08
2024-03-10T01:15:25.663Z,45.64
2024-03-10T01:17:52.306Z,44.77
2024-03-10T01:20:19.092Z,44.52
2024-03-10T01:22:45.973Z,45.11
2024-03-10T01:25:12.676Z,42.50
2024-03-10T01:27:39.373Z,42.86
2024-03-10T01:30:06.444Z,41.69
2024-03-10T01:32:33.329Z,40.82
2024-03-10T01:35:00.180Z,44.81
2024-03-10T01:37:26.835Z,44.02
2024-03-10T01:39:53.505Z,42.81
2024-03-10T01:42:20.586Z,44.35
2024-03-10T01:44:47.305Z,43.47
2024-03-10T01:47:14.061Z,40.75
2024-03-10T01:49:41.118Z,40.51
2024-03-10T01:52:07.971Z,40.84
2024-03-10T01:54:35.258Z,40.86
2024-03-10T01:57:02.111Z,42.95
2024-03-10T01:59:29.039Z,43.00
2024-03-10T02:01:55.873Z,44.56
2024-03-10T02:04:23.271Z,40.09
2024-03-10T02:06:51.454Z,43.16
2024-03-10T02:09:19.914Z,40.14
2024-03-10T02:11:46.912Z,38.78
2024-03-10T02:14:13.855Z,40.58
2024-03-10T02:16:41.269Z,44.42
2024-03-10T02:19:08.790Z,44.86
2024-03-10T02:21:35.731Z,44.28
2024-03-10T02:24:12.603Z,41.19
2024-03-10T02:26:42.603Z,40.36
2024-03-10T02:29:27.347Z,40.54
2024-03-10T02:32:13.093Z,38.84
2024-03-10T02:34:58.670Z,37.08
2024-03-10T02:37:44.106Z,39.47
2024-03-10T02:40:30.009Z,38.65
2024-03-10T02:43:15.357Z,40.12
2024-03-10T02:46:00.698Z,43.92
2024-03-10T02:48:27.420Z,42.20
2024-03-10T02:50:54.113Z,41.80
2024-03-10T02:53:21.105Z,40.70
2024-03-10T02:55:48.103Z,41.00
2024-03-10T02:58:14.886Z,38.83
2024-03-10T03:00:41.715Z,41.08
2024-03-10T03:03:09.896Z,41.39
2024-03-10T03:05:41.676Z,43.57
2024-03-10T03:08:09.701Z,42.38
2024-03-10T03:10:36.885Z,38.97
2024-03-10T03:13:03.784Z,41.45
2024-03-10T03:15:30.741Z,40.93
2024-03-10T03:17:59.183Z,43.77
2024-03-10T03:20:27.998Z,42.75
2024-03-10T03:22:55.131Z,40.57
2024-03-10T03:25:22.077Z,42.85
2024-03-10T03:27:49.800Z,40.15
2024-03-10T03:30:17.513Z,39.15
2024-03-10T03:32:44.536Z,39.37
2024-03-10T03:35:17.262Z,39.54
2024-03-10T03:37:44.692Z,37.61
2024-03-10T03:40:14.306Z,41.65
2024-03-10T03:42:40.990Z,41.08
2024-03-10T03:45:08.478Z,38.08
2024-03-10T03:47:35.302Z,38.10
2024-03-10T03:50:02.408Z,39.88
2024-03-10T03:52:29.142Z,37.84
2024-03-10T03:54:56.034Z,37.62
2024-03-10T03:57:24.086Z,40.59
2024-03-10T03:59:51.691Z,39.64
2024-03-10T04:02:24.886Z,38.71
2024-03-10T04:04:51.717Z,38.08
2024-03-10T04:07:18.454Z,38.12
2024-03-10T04:09:45.129Z,37.94
2024-03-10T04:12:12.319Z,38.02
2024-03-10T04:14:39.156Z,35.81
2024-03-10T04:17:05.955Z,35.94
2024-03-10T04:19:33.033Z,36.38
2024-03-10T04:21:59.692Z,35.32
2024-03-10T04:24:26.835Z,35.50
2024-03-10T04:26:53.783Z,35.90
2024-03-10T04:29:21.001Z,35.12
2024-03-10T04:31:48.357Z,34.30
2024-03-10T04:34:15.080Z,34.39
2024-03-10T04:36:41.738Z,35.00
2024-03-10T04:39:11.292Z,35.22
2024-03-10T04:41:38.092Z,33.96
2024-03-10T04:44:05.129Z,35.18
2024-03-10T04:46:31.879Z,35.00
2024-03-10T04:48:58.839Z,35.36
2024-03-10T04:51:25.859Z,34.93
2024-03-10T04:53:52.599Z,35.36
2024-03-10T04:56:19.275Z,35.96
2024-03-10T04:58:45.923Z,35.93
2024-03-10T05:01:12.891Z,36.47
2024-03-10T05:03:40.304Z,36.24
2024-03-10T05:06:08.260Z,35.29
2024-03-10T05:08:35.111Z,34.93
2024-03-10T05:11:02.034Z,34.75
2024-03-10T05:13:28.701Z,35.33
2024-03-10T05:15:55.424Z,35.45
2024-03-10T05:18:22.122Z,35.11
2024-03-10T05:20:48.788Z,34.96
2024-03-10T05:23:15.547Z,35.10
2024-03-10T05:25:42.160Z,35.45
2024-03-10T05:28:10.717Z,35.10
2024-03-10T05:30:37.941Z,35.31
2024-03-10T05:33:06.830Z,35.14
2024-03-10T05:35:33.900Z,37.03
2024-03-10T05:38:00.718Z,37.93
2024-03-10T05:40:27.382Z,37.38
2024-03-10T05:42:54.062Z,37.73
2024-03-10T05:45:20.762Z,37.06
2024-03-10T05:47:49.857Z,36.45
2024-03-10T05:50:16.884Z,37.76
2024-03-10T05:52:43.802Z,37.05
2024-03-10T05:55:10.722Z,35.75
2024-03-10T05:57:37.402Z,36.87
2024-03-10T06:00:07.296Z,36.75
2024-03-10T06:02:38.238Z,35.02
2024-03-10T06:05:13.247Z,34.87
2024-03-10T06:07:40.651Z,35.33
2024-03-10T06:10:07.705Z,35.31
2024-03-10T06:12:34.338Z,34.33
2024-03-10T06:15:00.976Z,34.80
2024-03-10T06:17:32.854Z,34.23
2024-03-10T06:20:18.078Z,33.01
2024-03-10T06:23:03.505Z,34.13
2024-03-10T06:25:31.190Z,33.35
2024-03-10T06:27:58.192Z,34.51
2024-03-10T06:30:25.187Z,34.14
2024-03-10T06:32:51.947Z,34.08
2024-03-10T06:35:18.939Z,34.48
2024-03-10T06:37:46.188Z,33.79
2024-03-10T06:40:13.103Z,33.93
2024-03-10T06:42:41.559Z,33.81
2024-03-10T06:45:09.998Z,33.35
2024-03-10T06:47:36.885Z,33.59
2024-03-10T06:50:06.232Z,33.71
2024-03-10T06:52:33.988Z,33.63
2024-03-10T06:55:01.775Z,34.05
2024-03-10T06:57:30.093Z,33.17
2024-03-10T06:59:58.294Z,33.92
2024-03-10T07:02:25.768Z,32.51
2024-03-10T07:04:52.473Z,32.62
2024-03-10T07:07:19.042Z,32.86
2024-03-10T07:09:46.271Z,31.16
2024-03-10T07:12:13.270Z,30.66
2024-03-10T07:14:40.160Z,31.57
2024-03-10T07:17:07.005Z,30.68
2024-03-10T07:19:33.816Z,30.47
2024-03-10T07:22:00.477Z,31.51
2024-03-10T07:24:27.151Z,30.98
2024-03-10T07:26:54.037Z,30.76
2024-03-10T07:29:20.751Z,31.16
2024-03-10T07:31:48.259Z,30.38
2024-03-10T07:34:14.924Z,30.01
2024-03-10T07:36:41.501Z,30.24
2024-03-10T07:39:08.946Z,30.08
2024-03-10T07:41:36.057Z,30.62
2024-03-10T07:44:04.031Z,31.03
2024-03-10T07:46:30.763Z,30.28
2024-03-10T07:49:01.806Z,30.20
2024-03-10T07:51:30.077Z,30.89
2024-03-10T07:53:57.048Z,31.54
2024-03-10T07:56:23.739Z,29.92
2024-03-10T07:58:50.388Z,28.97
2024-03-10T08:01:17.088Z,29.74
2024-03-10T08:03:43.713Z,29.63
2024-03-10T08:06:11.531Z,29.75
2024-03-10T08:08:38.364Z,29.86
2024-03-10T08:11:05.252Z,30.21
2024-03-10T08:13:32.040Z,29.65
2024-03-10T08:16:00.572Z,29.29
2024-03-10T08:18:27.404Z,29.51
2024-03-10T08:20:55.425Z,28.92
2024-03-10T08:23:23.097Z,30.30
2024-03-10T08:25:50.425Z,30.21
2024-03-10T08:28:17.322Z,30.00
2024-03-10T08:30:44.428Z,29.00
2024-03-10T08:33:11.082Z,29.10
2024-03-10T08:35:39.064Z,28.59
2024-03-10T08:38:06.973Z,29.06
2024-03-10T08:40:36.406Z,28.80
2024-03-10T08:43:05.007Z,28.56
2024-03-10T08:45:32.832Z,27.19
2024-03-10T08:47:59.586Z,27.62
2024-03-10T08:50:26.438Z,27.88
2024-03-10T08:52:53.162Z,28.98
2024-03-10T08:55:19.949Z,28.93
2024-03-10T08:57:46.843Z,28.78
2024-03-10T09:00:19.129Z,29.00
2024-03-10T09:02:46.015Z,28.51
2024-03-10T09:05:14.508Z,28.28
2024-03-10T09:07:41.850Z,28.81
2024-03-10T09:10:09.082Z,28.50
2024-03-10T09:12:35.835Z,28.37
2024-03-10T09:15:03.171Z,29.70
2024-03-10T09:17:30.485Z,29.74
2024-03-10T09:19:58.208Z,29.62
2024-03-10T09:22:24.810Z,29.50
2024-03-10T09:24:51.579Z,29.12
2024-03-10T09:27:20.602Z,29.69
2024-03-10T09:29:48.557Z,29.64
2024-03-10T09:32:17.299Z,29.04
2024-03-10T09:34:44.146Z,28.56
2024-03-10T09:37:10.847Z,29.35
2024-03-10T09:39:37.486Z,30.60
2024-03-10T09:42:05.047Z,29.94
2024-03-10T09:44:34.297Z,29.56
2024-03-10T09:47:02.261Z,30.18
2024-03-10T09:49:29.313Z,29.84
2024-03-10T09:51:58.356Z,28.87
2024-03-10T09:54:25.280Z,29.64
2024-03-10T09:56:52.093Z,31.35
2024-03-10T09:59:28.384Z,30.76
2024-03-10T10:01:55.340Z,30.57
2024-03-10T10:04:26.930Z,29.86
2024-03-10T10:06:53.744Z,29.77
2024-03-10T10:09:20.473Z,30.41
2024-03-10T10:11:47.984Z,30.04
2024-03-10T10:14:24.436Z,30.23
2024-03-10T10:16:57.996Z,30.05
2024-03-10T10:19:28.040Z,29.59
2024-03-10T10:21:54.858Z,29.05
2024-03-10T10:24:21.588Z,29.70
2024-03-10T10:27:04.285Z,30.04
2024-03-10T10:29:50.050Z,30.51
2024-03-10T10:32:21.698Z,30.55
2024-03-10T10:34:49.035Z,29.55
2024-03-10T10:37:15.776Z,29.49
2024-03-10T10:39:42.706Z,28.54
2024-03-10T10:42:15.471Z,27.22
2024-03-10T10:44:48.046Z,27.43
2024-03-10T10:47:16.350Z,28.48
2024-03-10T10:49:43.098Z,27.91
2024-03-10T10:52:13.131Z,28.57
2024-03-10T10:54:41.219Z,27.40
2024-03-10T10:57:10.000Z,27.02
2024-03-10T10:59:37.615Z,27.19
2024-03-10T11:02:07.312Z,27.45
2024-03-10T11:04:37.830Z,29.12
2024-03-10T11:07:06.421Z,27.94
2024-03-10T11:09:33.234Z,28.29
2024-03-10T11:12:00.096Z,27.37
2024-03-10T11:14:27.737Z,27.47
2024-03-10T11:17:18.169Z,28.03
2024-03-10T11:19:48.826Z,28.80
2024-03-10T11:22:18.848Z,28.16
2024-03-10T11:24:47.373Z,28.68
2024-03-10T11:27:20.894Z,28.08
2024-03-10T11:29:49.209Z,26.91
2024-03-10T11:32:48.882Z,27.65
2024-03-10T11:35:18.515Z,28.15
2024-03-10T11:37:46.545Z,28.45
2024-03-10T11:40:17.343Z,28.84
2024-03-10T11:42:44.326Z,28.08
2024-03-10T11:45:13.746Z,28.68
2024-03-10T11:47:40.587Z,27.46
2024-03-10T11:50:07.703Z,27.90
2024-03-10T11:52:34.441Z,28.13
2024-03-10T11:55:01.084Z,27.86
2024-03-10T11:57:27.805Z,28.31
2024-03-10T11:59:55.124Z,28.14
2024-03-10T12:02:23.247Z,29.09
2024-03-10T12:04:51.356Z,28.72
2024-03-10T12:07:18.498Z,27.11
2024-03-10T12:09:45.115Z,27.69
2024-03-10T12:12:15.303Z,27.51
2024-03-10T12:14:45.359Z,26.21
2024-03-10T12:17:15.990Z,25.84
2024-03-10T12:19:43.570Z,25.32
2024-03-10T12:43:04.509Z,27.35
2024-03-10T12:45:31.308Z,28.25
2024-03-10T12:47:58.463Z,28.46
2024-03-10T12:50:27.926Z,28.49
2024-03-10T12:52:54.718Z,28.45
2024-03-10T12:55:21.953Z,28.77
2024-03-10T12:57:49.144Z,28.42
2024-03-10T13:00:30.511Z,26.97
2024-03-10T13:02:58.801Z,27.07
2024-03-10T13:05:28.290Z,26.32
2024-03-10T13:07:55.296Z,27.07
2024-03-10T13:10:23.027Z,26.23
2024-03-10T13:12:50.076Z,27.52
2024-03-10T13:15:17.192Z,27.69
2024-03-10T13:17:44.864Z,26.08
2024-03-10T13:20:18.833Z,25.60
2024-03-10T13:22:45.827Z,26.01
2024-03-10T13:25:13.774Z,27.24
2024-03-10T13:27:40.487Z,26.03
2024-03-10T13:30:08.063Z,27.21
2024-03-10T13:32:35.589Z,26.89
2024-03-10T13:35:03.410Z,26.93
2024-03-10T13:37:32.359Z,25.56
2024-03-10T13:39:59.503Z,25.49
2024-03-10T13:42:27.554Z,26.40
2024-03-10T13:44:54.808Z,26.27
2024-03-10T13:47:21.673Z,26.54
2024-03-10T13:49:49.504Z,26.69
2024-03-10T13:52:21.002Z,27.35
2024-03-10T13:54:48.232Z,25.95
2024-03-10T13:57:16.193Z,27.63
2024-03-10T13:59:45.336Z,27.14
2024-03-10T14:02:12.213Z,27.48
2024-03-10T14:04:39.436Z,27.14
2024-03-10T14:07:08.823Z,27.24
2024-03-10T14:09:37.260Z,28.62
2024-03-10T14:12:10.301Z,28.52
2024-03-10T14:14:37.148Z,28.26
2024-03-10T14:17:06.498Z,29.01
2024-03-10T14:19:34.916Z,28.10
2024-03-10T14:22:01.597Z,28.61
2024-03-10T14:24:28.249Z,28.16
2024-03-10T14:26:58.628Z,28.63
2024-03-10T14:29:26.884Z,27.71
2024-03-10T14:31:54.613Z,28.09
2024-03-10T14:34:22.435Z,27.88
2024-03-10T14:36:49.354Z,28.66
2024-03-10T14:39:17.088Z,29.25
2024-03-10T14:41:44.617Z,30.04
2024-03-10T14:44:13.159Z,29.96
2024-03-10T14:46:39.856Z,29.75
2024-03-10T14:49:09.364Z,30.58
2024-03-10T14:51:37.262Z,30.42
2024-03-10T14:54:04.264Z,31.10
2024-03-10T14:56:31.019Z,31.18
2024-03-10T14:58:57.975Z,30.45
2024-03-10T15:01:29.003Z,31.87
2024-03-10T15:03:58.367Z,32.25
2024-03-10T15:06:26.962Z,31.66
2024-03-10T15:08:55.989Z,31.97
2024-03-10T15:11:22.909Z,31.71
2024-03-10T15:13:49.841Z,32.18
2024-03-10T15:16:17.903Z,32.30
2024-03-10T15:18:46.052Z,33.02
2024-03-10T15:21:12.797Z,33.18
2024-03-10T15:23:39.891Z,33.47
2024-03-10T15:26:08.013Z,35.01
2024-03-10T15:28:38.708Z,34.22
2024-03-10T15:31:05.570Z,34.34
2024-03-10T15:33:32.913Z,34.70
2024-03-10T15:36:00.277Z,34.68
2024-03-10T15:38:27.816Z,35.34
2024-03-10T15:40:54.962Z,36.60
2024-03-10T15:43:23.296Z,35.75
2024-03-10T15:45:50.721Z,35.16
2024-03-10T15:48:17.850Z,35.84
2024-03-10T15:50:45.207Z,35.75
2024-03-10T15:53:12.578Z,36.31
2024-03-10T15:55:39.727Z,36.06
2024-03-10T15:58:07.475Z,36.50
2024-03-10T16:00:34.854Z,36.99
2024-03-10T16:03:05.070Z,36.80
2024-03-10T16:05:35.901Z,36.42
2024-03-10T16:08:04.561Z,36.33
2024-03-10T16:10:31.497Z,36.39
2024-03-10T16:12:59.907Z,36.36
2024-03-10T16:15:28.859Z,36.51
2024-03-10T16:17:56.235Z,35.91
2024-03-10T16:20:25.160Z,37.44
2024-03-10T16:22:53.053Z,37.81
2024-03-10T16:25:20.913Z,36.73
2024-03-10T16:27:48.531Z,37.55
2024-03-10T16:30:17.288Z,38.67
2024-03-10T16:32:44.890Z,38.54
2024-03-10T16:35:12.542Z,38.59
2024-03-10T16:37:41.309Z,38.35
2024-03-10T16:40:11.670Z,38.46
2024-03-10T16:42:44.351Z,38.49
2024-03-10T16:45:17.888Z,38.62
2024-03-10T16:47:46.400Z,37.98
2024-03-10T16:50:14.261Z,39.43
2024-03-10T16:52:41.044Z,39.73
2024-03-10T16:55:08.882Z,39.19
2024-03-10T16:57:37.321Z,39.52
2024-03-10T17:00:06.791Z,39.36
2024-03-10T17:02:35.186Z,39.16
2024-03-10T17:05:03.691Z,39.49
2024-03-10T17:07:31.539Z,39.83
2024-03-10T17:09:58.430Z,39.46
2024-03-10T17:12:25.384Z,39.34
2024-03-10T17:14:52.796Z,40.92
2024-03-10T17:17:19.900Z,40.06
2024-03-10T17:19:50.100Z,40.57
2024-03-10T17:22:17.114Z,42.05
2024-03-10T17:24:43.862Z,41.73
2024-03-10T17:27:10.779Z,41.43
2024-03-10T17:29:37.906Z,42.20
2024-03-10T17:32:05.564Z,41.49
2024-03-10T17:34:36.989Z,42.53
2024-03-10T17:37:05.100Z,44.33
2024-03-10T17:39:33.168Z,45.47
2024-03-10T17:42:00.160Z,46.56
2024-03-10T17:44:26.988Z,45.07
2024-03-10T17:46:53.930Z,44.23
2024-03-10T17:49:22.612Z,44.61
2024-03-10T17:51:49.341Z,44.91
2024-03-10T17:54:16.590Z,46.08
2024-03-10T17:56:43.790Z,47.71
2024-03-10T17:59:10.968Z,47.69
2024-03-10T18:01:37.976Z,48.71
2024-03-10T18:04:06.840Z,49.08
2024-03-10T18:06:33.704Z,50.61
2024-03-10T18:09:00.576Z,48.65
2024-03-10T18:11:28.953Z,48.32
2024-03-10T18:13:56.984Z,47.41
2024-03-10T18:16:24.105Z,47.20
2024-03-10T18:18:52.102Z,46.46
2024-03-10T18:21:19.864Z,46.70
2024-03-10T18:23:47.454Z,46.60
2024-03-10T18:26:15.283Z,45.97
2024-03-10T18:28:42.885Z,46.30
2024-03-10T18:31:09.759Z,45.51
2024-03-10T18:33:37.020Z,45.74
2024-03-10T18:36:06.211Z,46.50
2024-03-10T18:38:33.781Z,45.92
2024-03-10T18:41:00.887Z,47.54
2024-03-10T18:43:30.670Z,48.77
2024-03-10T18:46:01.743Z,49.35
2024-03-10T18:48:29.184Z,48.52
2024-03-10T18:51:02.358Z,48.66
2024-03-10T18:53:34.294Z,49.12
2024-03-10T18:56:03.462Z,48.02
2024-03-10T18:58:32.873Z,51.99
2024-03-10T19:01:00.736Z,50.99
2024-03-10T19:03:28.113Z,50.06
2024-03-10T19:05:55.062Z,50.74
2024-03-10T19:08:23.121Z,51.27
2024-03-10T19:10:50.147Z,52.73
2024-03-10T19:13:18.685Z,51.99
2024-03-10T19:15:46.355Z,53.04
2024-03-10T19:18:13.433Z,53.25
2024-03-10T19:20:40.892Z,51.54
2024-03-10T19:23:08.527Z,54.71
2024-03-10T19:25:35.409Z,52.86
2024-03-10T19:28:02.326Z,54.63
2024-03-10T19:30:29.133Z,54.55
2024-03-10T19:32:56.068Z,57.08
2024-03-10T19:35:23.739Z,56.45
2024-03-10T19:37:52.242Z,56.94
2024-03-10T19:40:19.821Z,56.55
2024-03-10T19:42:47.456Z,56.98
2024-03-10T19:45:14.918Z,55.71
2024-03-10T19:47:42.811Z,56.65
2024-03-10T19:50:10.036Z,55.56
2024-03-10T19:52:40.797Z,54.08
2024-03-10T19:55:08.898Z,55.14
2024-03-10T19:57:36.457Z,54.58
2024-03-10T20:00:03.613Z,55.96
2024-03-10T20:02:39.224Z,53.94
2024-03-10T20:05:07.093Z,55.20
2024-03-10T20:07:34.060Z,53.98
2024-03-10T20:10:01.027Z,54.90
2024-03-10T20:12:28.916Z,54.54
2024-03-10T20:14:55.594Z,56.25
2024-03-10T20:17:22.434Z,54.77
2024-03-10T20:19:49.103Z,53.87
2024-03-10T20:22:15.781Z,56.32
2024-03-10T20:24:43.122Z,56.39
2024-03-10T20:27:09.779Z,56.07
2024-03-10T20:29:36.837Z,54.78
2024-03-10T20:32:26.870Z,56.69
2024-03-10T20:34:53.803Z,56.96
2024-03-10T20:37:20.420Z,56.48
2024-03-10T20:39:47.057Z,55.09
2024-03-10T20:42:15.284Z,55.16
2024-03-10T20:44:42.505Z,55.67
2024-03-10T20:47:10.248Z,56.96
2024-03-10T20:49:40.207Z,55.60
2024-03-10T20:52:08.738Z,54.29
2024-03-10T20:54:36.441Z,55.49
2024-03-10T20:57:06.768Z,56.06
2024-03-10T20:59:33.590Z,56.42
2024-03-10T21:02:01.240Z,54.38
2024-03-10T21:04:29.961Z,54.13
2024-03-10T21:06:58.474Z,55.83
2024-03-10T21:09:25.129Z,55.05
2024-03-10T21:11:51.985Z,55.95
2024-03-10T21:14:20.060Z,56.16
2024-03-10T21:16:47.375Z,55.30
2024-03-10T21:19:15.040Z,55.54
2024-03-10T21:21:41.679Z,55.03
2024-03-10T21:24:08.452Z,54.11
2024-03-10T21:26:35.411Z,55.13
2024-03-10T21:29:02.113Z,54.97
2024-03-10T21:31:29.234Z,54.73
2024-03-10T21:33:55.894Z,54.77
2024-03-10T21:36:24.503Z,55.11
2024-03-10T21:38:51.828Z,54.07
2024-03-10T21:41:18.937Z,55.29
2024-03-10T21:43:47.142Z,54.97
2024-03-10T21:46:13.955Z,54.88
2024-03-10T21:48:40.867Z,56.20
2024-03-10T21:51:07.629Z,56.59
2024-03-10T21:53:34.846Z,55.42
2024-03-10T21:56:02.141Z,55.80
2024-03-10T21:58:29.584Z,56.36
2024-03-10T22:00:56.865Z,56.61
2024-03-10T22:03:23.632Z,55.82
2024-03-10T22:05:51.807Z,55.37
2024-03-10T22:08:19.074Z,55.68
2024-03-10T22:10:45.831Z,55.15
2024-03-10T22:13:12.482Z,56.50
2024-03-10T22:15:39.116Z,57.02
2024-03-10T22:18:06.399Z,56.74
2024-03-10T22:20:34.135Z,56.72
2024-03-10T22:23:00.994Z,57.39
2024-03-10T22:25:28.205Z,56.27
2024-03-10T22:27:56.157Z,55.22
2024-03-10T22:30:26.999Z,55.43
2024-03-10T22:32:54.539Z,55.08
2024-03-10T22:35:21.332Z,55.62
2024-03-10T22:37:49.276Z,56.20
2024-03-10T22:40:17.864Z,56.00
2024-03-10T22:42:45.699Z,57.00
2024-03-10T22:45:21.126Z,55.24
2024-03-10T22:47:55.303Z,56.79
2024-03-10T22:50:22.244Z,56.02
2024-03-10T22:52:50.114Z,55.74
2024-03-10T22:55:17.887Z,55.57
2024-03-10T22:57:47.628Z,57.43
2024-03-10T23:00:20.935Z,55.70
2024-03-10T23:02:48.574Z,55.97
2024-03-10T23:05:18.988Z,55.76
2024-03-10T23:07:46.211Z,57.47
2024-03-10T23:10:13.044Z,54.73
2024-03-10T23:12:40.184Z,53.59
2024-03-10T23:15:12.835Z,56.13
2024-03-10T23:17:39.760Z,57.14
2024-03-10T23:20:21.223Z,56.76
2024-03-10T23:22:47.909Z,58.40
2024-03-10T23:25:14.674Z,57.48
2024-03-10T23:27:41.559Z,55.46
2024-03-10T23:30:13.945Z,59.02
2024-03-10T23:32:43.706Z,57.81
2024-03-10T23:35:10.566Z,56.85
2024-03-10T23:37:37.479Z,56.08
2024-03-10T23:40:05.146Z,57.45
2024-03-10T23:42:32.004Z,57.73
2024-03-10T23:44:58.884Z,57.14
2024-03-10T23:47:25.717Z,55.80
2024-03-10T23:49:53.095Z,57.13
2024-03-10T23:52:20.498Z,57.39
2024-03-10T23:54:47.739Z,60.42
2024-03-10T23:57:14.430Z,58.88
2024-03-10T23:59:42.051Z,57.94
